Time;durP1;ratioP1;P1;durP2;ratioP2;P2;SDS_P1;SDS_P2;PMS_P1;PMS_P2;Temp;Humidity;BMP_temperature;BMP_pressure;BME280_temperature;BME280_humidity;BME280_pressure;Samples;Min_cycle;Max_cycle;Signal;HPM_P1;HPM_P2
2023/08/26 00:00:30;;;;;;;8.57;7.50;;;;;;;;;;5033684;28;20389;-70
2023/08/26 00:02:56;;;;;;;7.68;6.88;;;;;;;;;;5015671;28;20048;-71
2023/08/26 00:05:21;;;;;;;7.85;7.10;;;;;;;;;;5033696;28;20025;-70
2023/08/26 00:07:47;;;;;;;8.70;6.93;;;;;;;;;;4999573;28;20038;-70
2023/08/26 00:10:12;;;;;;;9.20;6.53;;;;;;;;;;5015710;28;20026;-70
2023/08/26 00:12:38;;;;;;;7.15;6.38;;;;;;;;;;5033426;28;20048;-70
2023/08/26 00:15:04;;;;;;;6.07;5.53;;;;;;;;;;5015753;28;20104;-71
2023/08/26 00:17:29;;;;;;;6.40;5.80;;;;;;;;;;5015756;28;20037;-60
2023/08/26 00:19:54;;;;;;;6.82;6.10;;;;;;;;;;5033357;28;20037;-69
2023/08/26 00:22:20;;;;;;;7.07;6.38;;;;;;;;;;5033163;28;20476;-68
2023/08/26 00:24:47;;;;;;;7.82;6.85;;;;;;;;;;5033916;28;20117;-60
2023/08/26 00:27:13;;;;;;;9.93;6.60;;;;;;;;;;5033352;28;20040;-60
2023/08/26 00:29:39;;;;;;;7.43;6.57;;;;;;;;;;5016212;28;20076;-60
2023/08/26 00:32:05;;;;;;;10.48;6.70;;;;;;;;;;5015446;28;20061;-69
2023/08/26 00:34:32;;;;;;;8.02;6.25;;;;;;;;;;5015462;28;20029;-60
2023/08/26 00:36:57;;;;;;;8.65;6.03;;;;;;;;;;5015678;28;20029;-68
2023/08/26 00:39:23;;;;;;;6.82;6.22;;;;;;;;;;5015399;28;20029;-68
2023/08/26 00:41:48;;;;;;;10.20;6.22;;;;;;;;;;5015291;28;20120;-68
2023/08/26 00:44:14;;;;;;;5.93;5.20;;;;;;;;;;5033006;28;20025;-59
2023/08/26 00:46:39;;;;;;;9.18;6.07;;;;;;;;;;5033267;28;20592;-60
2023/08/26 00:49:05;;;;;;;6.95;5.45;;;;;;;;;;5037092;28;20061;-68
2023/08/26 00:51:31;;;;;;;7.78;6.38;;;;;;;;;;5018790;28;20048;-60
2023/08/26 00:53:56;;;;;;;8.20;6.65;;;;;;;;;;5019154;28;20037;-71
2023/08/26 00:56:22;;;;;;;6.65;5.97;;;;;;;;;;5018854;28;20079;-72
2023/08/26 00:58:48;;;;;;;6.30;5.63;;;;;;;;;;5036557;28;20032;-62
2023/08/26 01:01:14;;;;;;;6.30;5.70;;;;;;;;;;5019116;28;20025;-72
2023/08/26 01:03:40;;;;;;;8.63;6.65;;;;;;;;;;5036603;28;20033;-72
2023/08/26 01:06:06;;;;;;;6.20;5.40;;;;;;;;;;5018636;28;20554;-71
2023/08/26 01:08:32;;;;;;;7.15;6.45;;;;;;;;;;5036593;28;20492;-71
2023/08/26 01:11:00;;;;;;;6.90;6.30;;;;;;;;;;5002232;28;20104;-71
2023/08/26 01:13:29;;;;;;;6.95;6.30;;;;;;;;;;5002403;28;20412;-71
2023/08/26 01:15:56;;;;;;;7.75;6.57;;;;;;;;;;5018604;28;20124;-71
2023/08/26 01:18:21;;;;;;;7.28;5.28;;;;;;;;;;5036550;28;20061;-72
2023/08/26 01:20:48;;;;;;;6.18;5.55;;;;;;;;;;5036111;28;20029;-72
2023/08/26 01:23:18;;;;;;;7.68;6.45;;;;;;;;;;5035991;28;20014;-62
2023/08/26 01:25:44;;;;;;;7.25;6.07;;;;;;;;;;5018338;28;20025;-61
2023/08/26 01:28:09;;;;;;;7.53;6.43;;;;;;;;;;5036023;28;20462;-61
2023/08/26 01:30:35;;;;;;;7.60;6.82;;;;;;;;;;5001914;28;20483;-70
2023/08/26 01:33:09;;;;;;;7.45;6.68;;;;;;;;;;5036221;28;20485;-70
2023/08/26 01:35:40;;;;;;;6.97;6.28;;;;;;;;;;5018392;28;20030;-61
2023/08/26 01:38:07;;;;;;;7.43;5.65;;;;;;;;;;5018023;28;20043;-61
2023/08/26 01:40:33;;;;;;;6.45;5.57;;;;;;;;;;5018053;28;20025;-60
2023/08/26 01:42:58;;;;;;;6.78;6.18;;;;;;;;;;5035926;28;20381;-70
2023/08/26 01:45:24;;;;;;;6.50;5.90;;;;;;;;;;5018156;28;20037;-60
2023/08/26 01:47:49;;;;;;;5.90;5.35;;;;;;;;;;5035854;28;20026;-60
2023/08/26 01:50:14;;;;;;;6.63;6.10;;;;;;;;;;5017818;28;20480;-61
2023/08/26 01:52:41;;;;;;;8.07;6.45;;;;;;;;;;5035664;28;20052;-61
2023/08/26 01:55:07;;;;;;;6.47;5.88;;;;;;;;;;5035483;28;20041;-61
2023/08/26 01:57:32;;;;;;;6.68;5.88;;;;;;;;;;5017729;28;20040;-60
2023/08/26 01:59:58;;;;;;;8.07;5.53;;;;;;;;;;5017679;28;20452;-69
2023/08/26 02:02:24;;;;;;;6.90;5.38;;;;;;;;;;5001311;28;20030;-61
2023/08/26 02:04:49;;;;;;;6.35;5.68;;;;;;;;;;5018087;28;20422;-71
2023/08/26 02:07:16;;;;;;;8.75;5.85;;;;;;;;;;5017457;28;20477;-61
2023/08/26 02:09:42;;;;;;;5.85;5.22;;;;;;;;;;5017436;28;20075;-61
2023/08/26 02:12:08;;;;;;;5.88;5.30;;;;;;;;;;5017823;28;20053;-61
2023/08/26 02:14:33;;;;;;;6.72;6.03;;;;;;;;;;5035338;28;20045;-61
2023/08/26 02:16:59;;;;;;;7.10;6.00;;;;;;;;;;5035040;28;20374;-61
2023/08/26 02:19:24;;;;;;;6.57;5.95;;;;;;;;;;5017271;28;20060;-61
2023/08/26 02:21:51;;;;;;;8.95;6.00;;;;;;;;;;5017155;28;20083;-60
2023/08/26 02:24:21;;;;;;;6.03;5.28;;;;;;;;;;5017201;28;20060;-60
2023/08/26 02:26:47;;;;;;;6.00;4.80;;;;;;;;;;5017427;28;20053;-61
2023/08/26 02:29:12;;;;;;;5.07;4.53;;;;;;;;;;5017076;28;20018;-60
2023/08/26 02:31:38;;;;;;;5.20;4.80;;;;;;;;;;5034786;28;20179;-71
2023/08/26 02:34:03;;;;;;;6.13;4.95;;;;;;;;;;5017198;28;20101;-71
2023/08/26 02:36:29;;;;;;;8.50;5.28;;;;;;;;;;5016957;28;20470;-71
2023/08/26 02:38:54;;;;;;;6.47;5.82;;;;;;;;;;5017630;28;20108;-71
2023/08/26 02:41:20;;;;;;;7.35;5.60;;;;;;;;;;5016912;28;20036;-62
2023/08/26 02:43:45;;;;;;;6.78;5.45;;;;;;;;;;5034669;28;20409;-61
2023/08/26 02:46:11;;;;;;;6.30;5.70;;;;;;;;;;5034499;28;20033;-60
2023/08/26 02:48:36;;;;;;;6.57;5.40;;;;;;;;;;5016998;28;20057;-60
2023/08/26 02:51:02;;;;;;;5.50;5.07;;;;;;;;;;5016665;28;20116;-60
2023/08/26 02:53:28;;;;;;;5.00;4.68;;;;;;;;;;5016528;28;20088;-61
2023/08/26 02:55:54;;;;;;;5.10;4.70;;;;;;;;;;5000883;28;20029;-61
2023/08/26 02:58:20;;;;;;;5.78;5.38;;;;;;;;;;5034732;28;20040;-61
2023/08/26 03:00:46;;;;;;;5.57;5.07;;;;;;;;;;5033953;28;20091;-70
2023/08/26 03:03:12;;;;;;;5.20;4.68;;;;;;;;;;5033400;28;20580;-70
2023/08/26 03:05:37;;;;;;;4.68;4.22;;;;;;;;;;5015497;28;20148;-70
2023/08/26 03:08:02;;;;;;;5.15;4.75;;;;;;;;;;4998972;28;20021;-71
2023/08/26 03:10:28;;;;;;;5.38;4.53;;;;;;;;;;5032204;28;20087;-70
2023/08/26 03:12:54;;;;;;;5.32;4.82;;;;;;;;;;5015331;28;20116;-70
2023/08/26 03:15:19;;;;;;;5.50;4.97;;;;;;;;;;5015313;28;20033;-70
2023/08/26 03:17:44;;;;;;;6.03;4.53;;;;;;;;;;5032859;28;20033;-70
2023/08/26 03:20:12;;;;;;;4.90;4.43;;;;;;;;;;5032811;28;20064;-70
2023/08/26 03:22:37;;;;;;;6.22;4.35;;;;;;;;;;5032642;28;20076;-70
2023/08/26 03:25:03;;;;;;;4.63;4.28;;;;;;;;;;5032854;28;20037;-70
2023/08/26 03:27:29;;;;;;;4.88;3.78;;;;;;;;;;5015657;28;20057;-70
2023/08/26 03:29:55;;;;;;;4.78;4.13;;;;;;;;;;5032993;28;20017;-70
2023/08/26 03:32:21;;;;;;;5.25;4.85;;;;;;;;;;5032876;28;20108;-70
2023/08/26 03:34:47;;;;;;;5.20;4.80;;;;;;;;;;5032959;28;20037;-68
2023/08/26 03:37:14;;;;;;;5.30;4.85;;;;;;;;;;5034243;28;20487;-68
2023/08/26 03:39:40;;;;;;;6.13;5.20;;;;;;;;;;5016745;28;20037;-68
2023/08/26 03:42:05;;;;;;;6.95;4.78;;;;;;;;;;4999443;28;20036;-68
2023/08/26 03:44:30;;;;;;;5.97;4.30;;;;;;;;;;5033914;28;20071;-68
2023/08/26 03:46:56;;;;;;;4.75;4.30;;;;;;;;;;5015269;28;20025;-68
2023/08/26 03:49:21;;;;;;;4.22;3.90;;;;;;;;;;5031647;28;20022;-68
2023/08/26 03:51:48;;;;;;;4.13;3.75;;;;;;;;;;5013598;28;20052;-68
2023/08/26 03:54:13;;;;;;;4.22;3.90;;;;;;;;;;5014132;28;20504;-68
2023/08/26 03:56:39;;;;;;;4.95;4.45;;;;;;;;;;5014332;28;20029;-68
2023/08/26 03:59:04;;;;;;;6.10;4.47;;;;;;;;;;5014235;28;20026;-68
2023/08/26 04:01:31;;;;;;;4.93;4.47;;;;;;;;;;5013743;28;20441;-68
2023/08/26 04:03:56;;;;;;;5.50;4.88;;;;;;;;;;5031418;28;20044;-68
2023/08/26 04:06:22;;;;;;;5.05;4.75;;;;;;;;;;5031500;28;20018;-68
2023/08/26 04:08:48;;;;;;;4.95;4.45;;;;;;;;;;5013651;28;20033;-68
2023/08/26 04:11:15;;;;;;;5.50;4.70;;;;;;;;;;5013788;28;20021;-68
2023/08/26 04:13:40;;;;;;;5.32;4.93;;;;;;;;;;5013997;28;20022;-68
2023/08/26 04:16:06;;;;;;;4.68;4.30;;;;;;;;;;5033566;28;20479;-68
2023/08/26 04:18:31;;;;;;;5.03;4.45;;;;;;;;;;5033310;28;20026;-68
2023/08/26 04:20:58;;;;;;;5.63;4.70;;;;;;;;;;5016483;28;20037;-68
2023/08/26 04:23:24;;;;;;;9.73;5.03;;;;;;;;;;5003099;28;20535;-68
2023/08/26 04:25:56;;;;;;;4.85;4.40;;;;;;;;;;5013275;23;20114;-63
2023/08/26 04:28:22;;;;;;;4.93;4.53;;;;;;;;;;4996490;28;20027;-60
2023/08/26 04:30:47;;;;;;;4.63;4.22;;;;;;;;;;4996442;28;20037;-61
2023/08/26 04:33:12;;;;;;;5.38;4.88;;;;;;;;;;4997948;28;20021;-60
2023/08/26 04:35:38;;;;;;;5.93;4.20;;;;;;;;;;4996350;28;20027;-61
2023/08/26 04:38:03;;;;;;;4.63;4.25;;;;;;;;;;4996350;28;20026;-61
2023/08/26 04:40:29;;;;;;;5.10;3.88;;;;;;;;;;4996315;28;20026;-61
2023/08/26 04:42:55;;;;;;;4.18;3.83;;;;;;;;;;4997697;28;20042;-60
2023/08/26 04:45:22;;;;;;;4.40;4.00;;;;;;;;;;4996212;28;20019;-60
2023/08/26 04:47:48;;;;;;;4.18;3.70;;;;;;;;;;4997428;28;20165;-59
2023/08/26 04:50:13;;;;;;;4.65;4.25;;;;;;;;;;4997915;28;20026;-60
2023/08/26 04:52:39;;;;;;;4.90;4.35;;;;;;;;;;4996017;28;20038;-60
2023/08/26 04:55:08;;;;;;;4.78;4.30;;;;;;;;;;4996021;28;20033;-59
2023/08/26 04:57:34;;;;;;;4.72;4.35;;;;;;;;;;4997498;28;20045;-60
2023/08/26 04:59:59;;;;;;;5.00;4.50;;;;;;;;;;4997204;28;20034;-60
2023/08/26 05:02:25;;;;;;;4.38;4.07;;;;;;;;;;4995805;28;20040;-60
2023/08/26 05:04:50;;;;;;;5.05;4.57;;;;;;;;;;4979646;28;20022;-60
2023/08/26 05:07:16;;;;;;;5.50;4.97;;;;;;;;;;4995807;28;20029;-59
2023/08/26 05:09:41;;;;;;;6.70;4.60;;;;;;;;;;4997279;28;20041;-60
2023/08/26 05:12:07;;;;;;;5.35;4.85;;;;;;;;;;4995700;28;20031;-61
2023/08/26 05:14:32;;;;;;;5.80;5.10;;;;;;;;;;4995703;28;20395;-60
2023/08/26 05:16:58;;;;;;;7.25;4.78;;;;;;;;;;4996857;28;20028;-60
2023/08/26 05:19:24;;;;;;;7.82;4.57;;;;;;;;;;4995633;28;20027;-60
2023/08/26 05:21:49;;;;;;;5.25;4.75;;;;;;;;;;4995443;28;20034;-61
2023/08/26 05:24:14;;;;;;;4.72;4.18;;;;;;;;;;4999897;28;20077;-60
2023/08/26 05:26:41;;;;;;;4.60;4.22;;;;;;;;;;5036044;28;20162;-60
2023/08/26 05:29:07;;;;;;;5.40;4.90;;;;;;;;;;5018296;28;20025;-60
2023/08/26 05:31:33;;;;;;;6.35;4.93;;;;;;;;;;5018217;28;20084;-60
2023/08/26 05:33:59;;;;;;;5.30;4.57;;;;;;;;;;5017425;28;20025;-60
2023/08/26 05:36:25;;;;;;;5.32;4.80;;;;;;;;;;5018847;28;20033;-60
2023/08/26 05:38:51;;;;;;;7.40;5.45;;;;;;;;;;5018104;28;20064;-60
2023/08/26 05:41:17;;;;;;;5.70;5.20;;;;;;;;;;5035847;28;20030;-61
2023/08/26 05:43:42;;;;;;;6.88;5.28;;;;;;;;;;5017840;28;20121;-61
2023/08/26 05:46:09;;;;;;;6.35;5.45;;;;;;;;;;5035715;28;20436;-60
2023/08/26 05:48:35;;;;;;;6.32;5.20;;;;;;;;;;5017835;28;20025;-60
2023/08/26 05:51:01;;;;;;;8.82;4.63;;;;;;;;;;5017883;28;20036;-60
2023/08/26 05:53:28;;;;;;;5.75;5.18;;;;;;;;;;5017819;28;20041;-60
2023/08/26 05:55:53;;;;;;;6.85;5.47;;;;;;;;;;5018302;28;20358;-60
2023/08/26 05:58:18;;;;;;;8.95;5.78;;;;;;;;;;5017718;28;20022;-61
2023/08/26 06:00:48;;;;;;;7.22;5.97;;;;;;;;;;5017693;28;20646;-60
2023/08/26 06:03:13;;;;;;;6.30;5.65;;;;;;;;;;5035590;28;20075;-60
2023/08/26 06:05:38;;;;;;;11.02;6.78;;;;;;;;;;5017542;28;20432;-60
2023/08/26 06:08:05;;;;;;;8.00;5.78;;;;;;;;;;5017511;28;20120;-60
2023/08/26 06:10:31;;;;;;;12.43;6.38;;;;;;;;;;5017422;28;20052;-61
2023/08/26 06:12:58;;;;;;;10.10;6.30;;;;;;;;;;5017710;28;20044;-60
2023/08/26 06:15:25;;;;;;;10.07;5.72;;;;;;;;;;5017348;28;20068;-61
2023/08/26 06:17:52;;;;;;;6.82;5.03;;;;;;;;;;5017158;28;20033;-60
2023/08/26 06:20:20;;;;;;;9.38;5.55;;;;;;;;;;5017574;28;20029;-60
2023/08/26 06:22:46;;;;;;;8.50;5.32;;;;;;;;;;5017044;28;20037;-60
2023/08/26 06:25:11;;;;;;;11.25;6.07;;;;;;;;;;5017192;28;20045;-60
2023/08/26 06:27:37;;;;;;;9.30;5.40;;;;;;;;;;5035534;28;20026;-60
2023/08/26 06:30:03;;;;;;;10.10;5.75;;;;;;;;;;5017202;28;20107;-60
2023/08/26 06:32:29;;;;;;;9.60;6.38;;;;;;;;;;5017157;28;20092;-60
2023/08/26 06:34:55;;;;;;;11.80;6.10;;;;;;;;;;5016969;28;20112;-60
2023/08/26 06:37:20;;;;;;;10.20;7.07;;;;;;;;;;5035243;28;20033;-60
2023/08/26 06:39:47;;;;;;;10.88;6.72;;;;;;;;;;5017550;28;20458;-60
2023/08/26 06:42:12;;;;;;;11.27;6.07;;;;;;;;;;5017551;28;20092;-60
2023/08/26 06:44:50;;;;;;;7.78;5.88;;;;;;;;;;5033973;28;20025;-60
2023/08/26 06:47:16;;;;;;;10.85;6.82;;;;;;;;;;5034406;28;20112;-68
2023/08/26 06:49:41;;;;;;;9.77;6.03;;;;;;;;;;5032427;28;20018;-68
2023/08/26 06:52:07;;;;;;;8.15;5.85;;;;;;;;;;5016261;28;20075;-68
2023/08/26 06:54:33;;;;;;;6.78;5.60;;;;;;;;;;5016712;28;20034;-60
2023/08/26 06:56:58;;;;;;;10.55;5.80;;;;;;;;;;5015454;28;20038;-67
2023/08/26 06:59:24;;;;;;;10.95;7.05;;;;;;;;;;5017362;28;20017;-68
2023/08/26 07:01:49;;;;;;;10.27;6.38;;;;;;;;;;5000171;28;20112;-68
2023/08/26 07:04:14;;;;;;;11.38;6.40;;;;;;;;;;5034490;28;20354;-67
2023/08/26 07:06:40;;;;;;;11.50;6.82;;;;;;;;;;5034124;28;20040;-68
2023/08/26 07:09:05;;;;;;;11.52;7.65;;;;;;;;;;5034260;28;20033;-68
2023/08/26 07:11:31;;;;;;;19.33;9.25;;;;;;;;;;5034403;28;20028;-68
2023/08/26 07:13:57;;;;;;;16.02;8.68;;;;;;;;;;5034198;28;20033;-68
2023/08/26 07:16:22;;;;;;;12.65;7.18;;;;;;;;;;5034113;28;20105;-68
2023/08/26 07:18:47;;;;;;;14.27;7.88;;;;;;;;;;5033657;28;20397;-68
2023/08/26 07:21:14;;;;;;;16.05;6.97;;;;;;;;;;5015863;28;20060;-60
2023/08/26 07:23:39;;;;;;;12.93;7.18;;;;;;;;;;5033299;28;20038;-60
2023/08/26 07:26:05;;;;;;;14.07;8.35;;;;;;;;;;5034136;28;20095;-60
2023/08/26 07:28:30;;;;;;;15.13;7.57;;;;;;;;;;5034161;28;20564;-60
2023/08/26 07:31:01;;;;;;;11.20;6.85;;;;;;;;;;5016514;28;20112;-59
2023/08/26 07:33:26;;;;;;;;;;;;;;;;;;5034143;28;20041;-60
2023/08/26 07:35:51;;;;;;;11.73;7.10;;;;;;;;;;5034306;28;19925;-59
2023/08/26 07:38:17;;;;;;;12.70;8.20;;;;;;;;;;5033650;28;20029;-59
2023/08/26 07:40:42;;;;;;;10.73;7.50;;;;;;;;;;5033398;28;20027;-59
2023/08/26 07:43:08;;;;;;;12.18;6.57;;;;;;;;;;5016155;28;20106;-59
2023/08/26 07:45:33;;;;;;;15.20;8.27;;;;;;;;;;5033897;28;20041;-60
2023/08/26 07:47:58;;;;;;;10.20;7.28;;;;;;;;;;5033862;28;20021;-60
2023/08/26 07:50:24;;;;;;;8.95;6.55;;;;;;;;;;5034001;28;20362;-60
2023/08/26 07:52:49;;;;;;;12.35;6.88;;;;;;;;;;5033461;28;20029;-59
2023/08/26 07:55:15;;;;;;;12.07;7.93;;;;;;;;;;5015155;28;20048;-62
2023/08/26 07:57:40;;;;;;;10.85;6.32;;;;;;;;;;5033517;28;20112;-69
2023/08/26 08:00:06;;;;;;;10.38;6.32;;;;;;;;;;5015715;28;20033;-60
2023/08/26 08:02:37;;;;;;;8.60;6.20;;;;;;;;;;5016609;28;20034;-62
2023/08/26 08:05:03;;;;;;;9.50;6.13;;;;;;;;;;5016046;28;20079;-63
2023/08/26 08:07:28;;;;;;;11.20;6.10;;;;;;;;;;5033892;28;20026;-62
2023/08/26 08:09:55;;;;;;;6.90;5.88;;;;;;;;;;5034036;28;20018;-61
2023/08/26 08:12:20;;;;;;;9.90;6.40;;;;;;;;;;5033367;28;20033;-61
2023/08/26 08:14:45;;;;;;;7.70;5.90;;;;;;;;;;5033640;28;20032;-61
2023/08/26 08:17:11;;;;;;;7.35;5.53;;;;;;;;;;5033313;28;20385;-60
2023/08/26 08:19:37;;;;;;;6.43;5.00;;;;;;;;;;5015959;28;20029;-61
2023/08/26 08:22:03;;;;;;;8.90;4.85;;;;;;;;;;5033639;28;20523;-70
2023/08/26 08:24:28;;;;;;;7.45;5.78;;;;;;;;;;5033327;28;20557;-62
2023/08/26 08:26:53;;;;;;;8.13;5.93;;;;;;;;;;5033503;28;20025;-62
2023/08/26 08:29:19;;;;;;;9.60;5.80;;;;;;;;;;5033258;28;20029;-63
2023/08/26 08:31:44;;;;;;;8.63;6.13;;;;;;;;;;5033963;28;20184;-63
2023/08/26 08:34:09;;;;;;;9.75;5.72;;;;;;;;;;5033158;28;20025;-63
2023/08/26 08:36:35;;;;;;;9.68;6.35;;;;;;;;;;5033299;28;20065;-63
2023/08/26 08:39:00;;;;;;;9.10;6.20;;;;;;;;;;5015567;28;20025;-63
2023/08/26 08:41:26;;;;;;;9.15;6.13;;;;;;;;;;5033099;28;20466;-63
2023/08/26 08:43:54;;;;;;;9.98;6.03;;;;;;;;;;5033051;28;20074;-62
2023/08/26 08:46:20;;;;;;;9.52;6.32;;;;;;;;;;5033596;28;20036;-62
2023/08/26 08:48:45;;;;;;;11.02;6.22;;;;;;;;;;5016119;28;20536;-61
2023/08/26 08:51:12;;;;;;;9.57;5.97;;;;;;;;;;5032879;28;20137;-61
2023/08/26 08:53:43;;;;;;;12.35;6.68;;;;;;;;;;5033497;28;20076;-62
2023/08/26 08:56:10;;;;;;;9.75;6.22;;;;;;;;;;5015281;28;20037;-62
2023/08/26 08:58:36;;;;;;;9.93;6.47;;;;;;;;;;4999059;28;20458;-62
2023/08/26 09:01:04;;;;;;;12.02;6.10;;;;;;;;;;5032961;28;20462;-62
2023/08/26 09:03:29;;;;;;;9.93;6.40;;;;;;;;;;5033055;28;20037;-62
2023/08/26 09:05:55;;;;;;;129.82;18.13;;;;;;;;;;4998893;28;20091;-61
2023/08/26 09:08:23;;;;;;;16.63;7.40;;;;;;;;;;5034744;28;20013;-62
2023/08/26 09:10:48;;;;;;;16.15;6.40;;;;;;;;;;5036139;28;20416;-62
2023/08/26 09:13:14;;;;;;;13.25;6.40;;;;;;;;;;5036173;28;20040;-62
2023/08/26 09:15:39;;;;;;;12.13;5.85;;;;;;;;;;5018394;28;20099;-62
2023/08/26 09:18:09;;;;;;;8.20;4.85;;;;;;;;;;5036096;28;20029;-62
2023/08/26 09:20:37;;;;;;;7.70;3.90;;;;;;;;;;5036410;28;20029;-62
2023/08/26 09:23:03;;;;;;;10.88;5.18;;;;;;;;;;5036413;28;20035;-62
2023/08/26 09:25:30;;;;;;;7.90;5.30;;;;;;;;;;5035918;28;20033;-62
2023/08/26 09:27:55;;;;;;;6.40;5.03;;;;;;;;;;5036152;28;20029;-62
2023/08/26 09:30:21;;;;;;;8.32;5.38;;;;;;;;;;5036046;28;20030;-62
2023/08/26 09:32:49;;;;;;;7.45;4.40;;;;;;;;;;5018043;28;20029;-62
2023/08/26 09:35:15;;;;;;;7.45;3.40;;;;;;;;;;5035970;28;20044;-62
2023/08/26 09:37:42;;;;;;;83.82;14.40;;;;;;;;;;5018081;28;20044;-62
2023/08/26 09:40:11;;;;;;;6.55;4.63;;;;;;;;;;5035785;28;20041;-62
2023/08/26 09:42:37;;;;;;;7.20;4.20;;;;;;;;;;5017974;28;20480;-62
2023/08/26 09:45:05;;;;;;;6.55;4.22;;;;;;;;;;5035658;28;20049;-62
2023/08/26 09:47:34;;;;;;;9.00;4.35;;;;;;;;;;5001847;28;20037;-62
2023/08/26 09:49:59;;;;;;;7.47;3.92;;;;;;;;;;5035765;28;20068;-62
2023/08/26 09:52:24;;;;;;;7.28;4.00;;;;;;;;;;5035648;28;20038;-62
2023/08/26 09:54:51;;;;;;;6.10;3.65;;;;;;;;;;5017692;28;20063;-62
2023/08/26 09:57:16;;;;;;;3.72;3.33;;;;;;;;;;5035390;28;20033;-62
2023/08/26 09:59:42;;;;;;;5.78;3.55;;;;;;;;;;5018197;28;20140;-62
2023/08/26 10:02:16;;;;;;;4.90;3.70;;;;;;;;;;5035524;28;20038;-62
2023/08/26 10:04:51;;;;;;;5.00;3.53;;;;;;;;;;5035344;28;20057;-62
2023/08/26 10:07:17;;;;;;;4.53;3.40;;;;;;;;;;5035443;28;20377;-62
2023/08/26 10:09:52;;;;;;;4.32;3.10;;;;;;;;;;5035170;28;20489;-62
2023/08/26 10:12:20;;;;;;;4.90;3.25;;;;;;;;;;5035384;28;20112;-62
2023/08/26 10:14:47;;;;;;;4.03;3.63;;;;;;;;;;5017425;28;20465;-62
2023/08/26 10:17:13;;;;;;;3.63;3.10;;;;;;;;;;5035081;28;20029;-62
2023/08/26 10:19:40;;;;;;;6.25;4.30;;;;;;;;;;5017093;28;20034;-62
2023/08/26 10:22:06;;;;;;;4.32;3.83;;;;;;;;;;5000914;28;20080;-62
2023/08/26 10:24:32;;;;;;;5.82;4.28;;;;;;;;;;5017135;28;20041;-62
2023/08/26 10:26:58;;;;;;;6.15;4.18;;;;;;;;;;5035029;28;20083;-62
2023/08/26 10:29:23;;;;;;;7.57;4.60;;;;;;;;;;5034910;28;20109;-62
2023/08/26 10:31:50;;;;;;;6.70;4.18;;;;;;;;;;5017266;28;20105;-62
2023/08/26 10:34:16;;;;;;;6.72;4.10;;;;;;;;;;5034843;28;20029;-62
2023/08/26 10:36:46;;;;;;;4.95;4.22;;;;;;;;;;5017284;28;20029;-62
2023/08/26 10:39:14;;;;;;;5.53;4.35;;;;;;;;;;5034655;28;20025;-62
2023/08/26 10:41:39;;;;;;;6.80;4.30;;;;;;;;;;5017053;28;20026;-62
2023/08/26 10:44:05;;;;;;;12.63;4.68;;;;;;;;;;5034496;28;20037;-62
2023/08/26 10:46:30;;;;;;;6.18;4.00;;;;;;;;;;5034773;28;20080;-62
2023/08/26 10:48:56;;;;;;;10.88;4.88;;;;;;;;;;5016852;28;20034;-62
2023/08/26 10:51:22;;;;;;;14.05;5.00;;;;;;;;;;5034509;28;20025;-62
2023/08/26 10:53:48;;;;;;;8.05;4.80;;;;;;;;;;5016669;28;20140;-62
2023/08/26 10:56:18;;;;;;;5.88;4.63;;;;;;;;;;5016969;28;20057;-62
2023/08/26 10:58:45;;;;;;;12.32;4.00;;;;;;;;;;5034170;28;20072;-62
2023/08/26 11:01:12;;;;;;;7.28;4.43;;;;;;;;;;5032890;28;20028;-62
2023/08/26 11:03:39;;;;;;;4.90;3.92;;;;;;;;;;5015651;28;20037;-62
2023/08/26 11:06:05;;;;;;;7.03;3.70;;;;;;;;;;5031526;28;20297;-62
2023/08/26 11:08:31;;;;;;;9.35;4.45;;;;;;;;;;5012592;28;20484;-62
2023/08/26 11:10:56;;;;;;;6.22;4.10;;;;;;;;;;4999038;28;20021;-61
2023/08/26 11:13:22;;;;;;;6.97;4.35;;;;;;;;;;5014901;28;20065;-61
2023/08/26 11:15:49;;;;;;;4.53;3.72;;;;;;;;;;5012202;28;20478;-61
2023/08/26 11:18:14;;;;;;;3.92;3.55;;;;;;;;;;5011988;28;20025;-61
2023/08/26 11:20:39;;;;;;;5.55;3.33;;;;;;;;;;5013250;28;20034;-61
2023/08/26 11:23:05;;;;;;;4.63;3.40;;;;;;;;;;5013170;28;20046;-61
2023/08/26 11:25:32;;;;;;;3.92;3.22;;;;;;;;;;5013028;28;20109;-61
2023/08/26 11:28:02;;;;;;;3.20;3.00;;;;;;;;;;5024481;28;20377;-61
2023/08/26 11:30:28;;;;;;;;;;;;;;;;;;5032845;28;20022;-60
2023/08/26 11:32:53;;;;;;;3.03;2.83;;;;;;;;;;5015914;28;20368;-61
2023/08/26 11:35:19;;;;;;;4.97;3.58;;;;;;;;;;5033551;28;20034;-61
2023/08/26 11:37:48;;;;;;;4.47;3.65;;;;;;;;;;5031366;28;20023;-61
2023/08/26 11:40:15;;;;;;;3.40;3.10;;;;;;;;;;4997085;28;20034;-61
2023/08/26 11:42:44;;;;;;;4.13;3.47;;;;;;;;;;5031862;28;20051;-61
2023/08/26 11:45:10;;;;;;;5.57;3.20;;;;;;;;;;5015911;28;20017;-61
2023/08/26 11:47:35;;;;;;;3.83;3.30;;;;;;;;;;4999571;28;20140;-61
2023/08/26 11:50:01;;;;;;;4.03;3.55;;;;;;;;;;5033884;28;20013;-61
2023/08/26 11:52:36;;;;;;;4.00;3.70;;;;;;;;;;5033560;28;20092;-61
2023/08/26 11:55:02;;;;;;;6.97;3.78;;;;;;;;;;5015997;28;20370;-61
2023/08/26 11:57:28;;;;;;;4.43;4.00;;;;;;;;;;5015764;28;20181;-61
2023/08/26 12:00:04;;;;;;;6.57;3.92;;;;;;;;;;5015853;28;20433;-61
2023/08/26 12:02:38;;;;;;;5.32;4.03;;;;;;;;;;5016918;28;20378;-61
2023/08/26 12:05:04;;;;;;;3.80;3.50;;;;;;;;;;5033407;28;20052;-61
2023/08/26 12:07:30;;;;;;;3.85;3.55;;;;;;;;;;4999284;28;20014;-61
2023/08/26 12:10:09;;;;;;;4.03;3.60;;;;;;;;;;5033301;28;20056;-61
2023/08/26 12:12:35;;;;;;;5.43;3.10;;;;;;;;;;5033522;28;20025;-61
2023/08/26 12:15:11;;;;;;;7.55;3.33;;;;;;;;;;5033293;28;20534;-61
2023/08/26 12:17:45;;;;;;;53.67;9.63;;;;;;;;;;5033250;28;20421;-61
2023/08/26 12:20:20;;;;;;;186.25;24.67;;;;;;;;;;5033300;28;20409;-61
2023/08/26 12:22:46;;;;;;;5.38;3.55;;;;;;;;;;5033214;28;20039;-61
2023/08/26 12:25:15;;;;;;;4.28;3.28;;;;;;;;;;5032964;28;20067;-61
2023/08/26 12:27:41;;;;;;;5.43;3.90;;;;;;;;;;5015715;28;20026;-61
2023/08/26 12:30:06;;;;;;;4.03;3.63;;;;;;;;;;5015470;28;20363;-61
2023/08/26 12:32:32;;;;;;;7.07;4.88;;;;;;;;;;5015455;28;20029;-61
2023/08/26 12:34:57;;;;;;;5.18;4.18;;;;;;;;;;5033117;28;20088;-61
2023/08/26 12:37:22;;;;;;;4.78;3.80;;;;;;;;;;5033177;28;20040;-61
2023/08/26 12:39:47;;;;;;;10.05;5.78;;;;;;;;;;5033393;28;20029;-61
2023/08/26 12:42:14;;;;;;;4.53;2.58;;;;;;;;;;5016442;28;20462;-61
2023/08/26 12:44:39;;;;;;;9.35;4.30;;;;;;;;;;5037219;28;20087;-61
2023/08/26 12:47:05;;;;;;;6.53;4.20;;;;;;;;;;5019098;28;20481;-61
2023/08/26 12:49:30;;;;;;;4.18;2.88;;;;;;;;;;5037194;28;20021;-61
2023/08/26 12:51:55;;;;;;;7.78;4.32;;;;;;;;;;5019024;28;20079;-61
2023/08/26 12:54:21;;;;;;;6.00;4.20;;;;;;;;;;5036940;28;20454;-61
2023/08/26 12:56:46;;;;;;;7.05;4.38;;;;;;;;;;5036751;28;20124;-61
2023/08/26 12:59:12;;;;;;;5.32;4.60;;;;;;;;;;5036621;28;20017;-61
2023/08/26 13:01:37;;;;;;;4.25;3.83;;;;;;;;;;5036850;28;20064;-61
2023/08/26 13:04:04;;;;;;;4.53;4.05;;;;;;;;;;5036520;28;20103;-61
2023/08/26 13:06:29;;;;;;;4.15;3.75;;;;;;;;;;5036789;28;20025;-61
2023/08/26 13:08:54;;;;;;;5.25;4.00;;;;;;;;;;5018578;28;20095;-61
2023/08/26 13:11:20;;;;;;;3.88;3.40;;;;;;;;;;5018795;28;20021;-61
2023/08/26 13:13:45;;;;;;;4.18;3.78;;;;;;;;;;5036209;28;20485;-61
2023/08/26 13:16:11;;;;;;;5.25;3.80;;;;;;;;;;5036355;28;20033;-61
2023/08/26 13:18:38;;;;;;;4.70;3.55;;;;;;;;;;5018504;28;20473;-61
2023/08/26 13:21:03;;;;;;;5.35;4.00;;;;;;;;;;5036218;28;20029;-61
2023/08/26 13:23:29;;;;;;;4.47;3.55;;;;;;;;;;5036083;28;20547;-61
2023/08/26 13:25:54;;;;;;;6.95;4.40;;;;;;;;;;5035979;28;20405;-61
2023/08/26 13:28:19;;;;;;;6.60;4.50;;;;;;;;;;5018596;28;20072;-61
2023/08/26 13:30:46;;;;;;;7.95;4.60;;;;;;;;;;5036334;28;20096;-61
2023/08/26 13:33:11;;;;;;;8.07;4.72;;;;;;;;;;5036304;28;20037;-61
2023/08/26 13:35:37;;;;;;;8.25;5.28;;;;;;;;;;5036234;28;20033;-61
2023/08/26 13:38:02;;;;;;;9.63;6.28;;;;;;;;;;5035923;28;20048;-61
2023/08/26 13:40:27;;;;;;;8.40;4.95;;;;;;;;;;5036116;28;20060;-61
2023/08/26 13:42:55;;;;;;;8.93;5.18;;;;;;;;;;5035570;28;20040;-61
2023/08/26 13:45:20;;;;;;;6.65;4.60;;;;;;;;;;5017778;28;20025;-61
2023/08/26 13:47:46;;;;;;;6.78;4.45;;;;;;;;;;5035594;28;20469;-61
2023/08/26 13:50:11;;;;;;;5.03;3.75;;;;;;;;;;5035628;28;20033;-61
2023/08/26 13:52:39;;;;;;;3.80;3.42;;;;;;;;;;5036108;28;20021;-61
2023/08/26 13:55:06;;;;;;;4.78;3.70;;;;;;;;;;5035729;28;20112;-61
2023/08/26 13:57:31;;;;;;;3.83;3.50;;;;;;;;;;5035859;28;20029;-61
2023/08/26 13:59:56;;;;;;;3.75;3.33;;;;;;;;;;5001378;28;20461;-60
2023/08/26 14:02:22;;;;;;;6.20;3.20;;;;;;;;;;5001466;28;20033;-61
2023/08/26 14:04:47;;;;;;;4.10;3.53;;;;;;;;;;5035275;28;20072;-60
2023/08/26 14:07:13;;;;;;;3.72;3.42;;;;;;;;;;5017583;28;20022;-60
2023/08/26 14:09:38;;;;;;;5.53;4.10;;;;;;;;;;5017609;28;20496;-61
2023/08/26 14:12:04;;;;;;;5.00;4.32;;;;;;;;;;5035257;28;20461;-61
2023/08/26 14:14:29;;;;;;;6.53;3.90;;;;;;;;;;5017642;28;20021;-61
2023/08/26 14:16:55;;;;;;;4.78;4.10;;;;;;;;;;5035361;28;20040;-61
2023/08/26 14:19:20;;;;;;;3.53;3.22;;;;;;;;;;5017335;28;20096;-61
2023/08/26 14:21:46;;;;;;;4.10;3.25;;;;;;;;;;5017305;28;20033;-61
2023/08/26 14:24:12;;;;;;;3.92;2.90;;;;;;;;;;5017134;28;20036;-61
2023/08/26 14:26:37;;;;;;;3.33;2.95;;;;;;;;;;5000833;28;20029;-61
2023/08/26 14:29:02;;;;;;;4.20;3.50;;;;;;;;;;5034868;28;20025;-61
2023/08/26 14:31:28;;;;;;;3.60;3.30;;;;;;;;;;5017489;28;20028;-61
2023/08/26 14:33:53;;;;;;;4.93;3.10;;;;;;;;;;5017085;28;20047;-61